sensor_id;sensor_type;location;lat;lon;timestamp;temperature;humidity
31379;DHT22;61664;48.112;11.662;2022-09-09T00:02:36;18.90;62.30
31379;DHT22;61664;48.112;11.662;2022-09-09T00:08:00;18.80;62.40
31379;DHT22;61664;48.112;11.662;2022-09-09T00:16:28;18.70;62.30
31379;DHT22;61664;48.112;11.662;2022-09-09T00:19:07;18.70;62.40
31379;DHT22;61664;48.112;11.662;2022-09-09T00:24:46;18.60;63.00
31379;DHT22;61664;48.112;11.662;2022-09-09T00:32:46;18.50;63.20
31379;DHT22;61664;48.112;11.662;2022-09-09T00:38:00;18.40;63.90
31379;DHT22;61664;48.112;11.662;2022-09-09T00:40:35;18.40;63.80
31379;DHT22;61664;48.112;11.662;2022-09-09T00:49:26;18.40;63.80
31379;DHT22;61664;48.112;11.662;2022-09-09T00:58:08;18.30;64.10
31379;DHT22;61664;48.112;11.662;2022-09-09T01:00:52;18.30;64.30
31379;DHT22;61664;48.112;11.662;2022-09-09T01:03:52;18.20;64.10
31379;DHT22;61664;48.112;11.662;2022-09-09T01:06:29;18.20;63.90
31379;DHT22;61664;48.112;11.662;2022-09-09T01:09:12;18.20;64.70
31379;DHT22;61664;48.112;11.662;2022-09-09T01:11:52;18.20;65.00
31379;DHT22;61664;48.112;11.662;2022-09-09T01:17:10;18.20;65.00
31379;DHT22;61664;48.112;11.662;2022-09-09T01:22:26;18.20;65.40
31379;DHT22;61664;48.112;11.662;2022-09-09T01:27:45;18.20;65.00
31379;DHT22;61664;48.112;11.662;2022-09-09T01:30:17;18.20;65.50
31379;DHT22;61664;48.112;11.662;2022-09-09T01:32:50;18.30;65.60
31379;DHT22;61664;48.112;11.662;2022-09-09T01:35:44;18.30;65.70
31379;DHT22;61664;48.112;11.662;2022-09-09T01:38:17;18.30;65.20
31379;DHT22;61664;48.112;11.662;2022-09-09T01:40:45;18.40;65.90
31379;DHT22;61664;48.112;11.662;2022-09-09T01:43:12;18.40;65.80
31379;DHT22;61664;48.112;11.662;2022-09-09T01:45:41;18.40;66.00
31379;DHT22;61664;48.112;11.662;2022-09-09T01:48:09;18.40;65.90
31379;DHT22;61664;48.112;11.662;2022-09-09T01:50:36;18.40;66.00
31379;DHT22;61664;48.112;11.662;2022-09-09T01:53:04;18.30;65.90
31379;DHT22;61664;48.112;11.662;2022-09-09T01:55:34;18.30;65.90
31379;DHT22;61664;48.112;11.662;2022-09-09T01:58:53;18.30;66.00
31379;DHT22;61664;48.112;11.662;2022-09-09T02:03:53;18.20;66.50
31379;DHT22;61664;48.112;11.662;2022-09-09T02:06:38;18.20;66.50
31379;DHT22;61664;48.112;11.662;2022-09-09T02:09:07;18.20;66.60
31379;DHT22;61664;48.112;11.662;2022-09-09T02:11:40;18.20;66.90
31379;DHT22;61664;48.112;11.662;2022-09-09T02:14:19;18.20;66.80
31379;DHT22;61664;48.112;11.662;2022-09-09T02:16:55;18.20;66.70
31379;DHT22;61664;48.112;11.662;2022-09-09T02:19:36;18.20;66.80
31379;DHT22;61664;48.112;11.662;2022-09-09T02:22:08;18.20;67.00
31379;DHT22;61664;48.112;11.662;2022-09-09T02:24:38;18.20;67.10
31379;DHT22;61664;48.112;11.662;2022-09-09T02:27:07;18.20;67.00
31379;DHT22;61664;48.112;11.662;2022-09-09T02:29:39;18.10;66.90
31379;DHT22;61664;48.112;11.662;2022-09-09T02:32:25;18.20;67.00
31379;DHT22;61664;48.112;11.662;2022-09-09T02:35:10;18.10;66.80
31379;DHT22;61664;48.112;11.662;2022-09-09T02:37:42;18.10;67.00
31379;DHT22;61664;48.112;11.662;2022-09-09T02:40:13;18.10;67.00
31379;DHT22;61664;48.112;11.662;2022-09-09T02:42:46;18.00;67.10
31379;DHT22;61664;48.112;11.662;2022-09-09T02:45:19;18.00;67.30
31379;DHT22;61664;48.112;11.662;2022-09-09T02:48:14;18.00;67.40
31379;DHT22;61664;48.112;11.662;2022-09-09T02:51:01;18.00;67.30
31379;DHT22;61664;48.112;11.662;2022-09-09T02:53:39;17.90;67.50
31379;DHT22;61664;48.112;11.662;2022-09-09T02:56:16;17.90;67.60
31379;DHT22;61664;48.112;11.662;2022-09-09T02:58:48;17.90;67.60
31379;DHT22;61664;48.112;11.662;2022-09-09T03:01:16;17.90;67.90
31379;DHT22;61664;48.112;11.662;2022-09-09T03:03:44;17.80;68.00
31379;DHT22;61664;48.112;11.662;2022-09-09T03:06:12;17.80;68.10
31379;DHT22;61664;48.112;11.662;2022-09-09T03:08:39;17.80;68.20
31379;DHT22;61664;48.112;11.662;2022-09-09T03:11:14;17.80;68.30
31379;DHT22;61664;48.112;11.662;2022-09-09T03:13:41;17.90;68.40
31379;DHT22;61664;48.112;11.662;2022-09-09T03:16:08;17.90;68.50
31379;DHT22;61664;48.112;11.662;2022-09-09T03:18:38;17.90;68.60
31379;DHT22;61664;48.112;11.662;2022-09-09T03:21:05;17.90;68.60
31379;DHT22;61664;48.112;11.662;2022-09-09T03:23:33;17.90;68.70
31379;DHT22;61664;48.112;11.662;2022-09-09T03:26:00;18.00;68.70
31379;DHT22;61664;48.112;11.662;2022-09-09T03:28:27;18.00;68.70
31379;DHT22;61664;48.112;11.662;2022-09-09T03:30:59;18.00;68.60
31379;DHT22;61664;48.112;11.662;2022-09-09T03:33:27;18.00;68.50
31379;DHT22;61664;48.112;11.662;2022-09-09T03:35:54;18.00;68.40
31379;DHT22;61664;48.112;11.662;2022-09-09T03:38:23;18.00;68.30
31379;DHT22;61664;48.112;11.662;2022-09-09T03:40:56;18.00;68.30
31379;DHT22;61664;48.112;11.662;2022-09-09T03:43:25;18.00;68.20
31379;DHT22;61664;48.112;11.662;2022-09-09T03:45:53;18.00;68.30
31379;DHT22;61664;48.112;11.662;2022-09-09T03:48:23;18.00;68.40
31379;DHT22;61664;48.112;11.662;2022-09-09T03:50:53;18.00;67.60
31379;DHT22;61664;48.112;11.662;2022-09-09T03:53:23;17.90;68.30
31379;DHT22;61664;48.112;11.662;2022-09-09T03:55:52;17.90;68.40
31379;DHT22;61664;48.112;11.662;2022-09-09T03:58:22;17.90;68.60
31379;DHT22;61664;48.112;11.662;2022-09-09T04:03:22;17.90;68.80
31379;DHT22;61664;48.112;11.662;2022-09-09T04:05:56;17.90;69.00
31379;DHT22;61664;48.112;11.662;2022-09-09T04:08:25;17.90;69.10
31379;DHT22;61664;48.112;11.662;2022-09-09T04:10:53;17.90;69.10
31379;DHT22;61664;48.112;11.662;2022-09-09T04:13:25;17.90;69.10
31379;DHT22;61664;48.112;11.662;2022-09-09T04:15:58;17.90;69.20
31379;DHT22;61664;48.112;11.662;2022-09-09T04:18:26;17.90;69.10
31379;DHT22;61664;48.112;11.662;2022-09-09T04:20:54;17.90;69.30
31379;DHT22;61664;48.112;11.662;2022-09-09T04:23:25;18.00;69.30
31379;DHT22;61664;48.112;11.662;2022-09-09T04:25:56;17.90;69.20
31379;DHT22;61664;48.112;11.662;2022-09-09T04:28:27;17.90;69.20
31379;DHT22;61664;48.112;11.662;2022-09-09T04:30:56;18.00;69.30
31379;DHT22;61664;48.112;11.662;2022-09-09T04:33:24;18.00;68.40
31379;DHT22;61664;48.112;11.662;2022-09-09T04:35:54;18.00;69.10
31379;DHT22;61664;48.112;11.662;2022-09-09T04:38:21;18.00;69.20
31379;DHT22;61664;48.112;11.662;2022-09-09T04:40:50;18.00;69.30
31379;DHT22;61664;48.112;11.662;2022-09-09T04:43:19;17.90;69.20
31379;DHT22;61664;48.112;11.662;2022-09-09T04:45:48;18.00;69.30
31379;DHT22;61664;48.112;11.662;2022-09-09T04:48:16;17.90;69.30
31379;DHT22;61664;48.112;11.662;2022-09-09T04:50:44;17.90;69.30
31379;DHT22;61664;48.112;11.662;2022-09-09T04:53:20;17.90;69.40
31379;DHT22;61664;48.112;11.662;2022-09-09T04:55:47;17.90;69.40
31379;DHT22;61664;48.112;11.662;2022-09-09T04:58:14;17.90;69.50
31379;DHT22;61664;48.112;11.662;2022-09-09T05:00:41;17.90;69.50
31379;DHT22;61664;48.112;11.662;2022-09-09T05:03:08;17.90;69.50
31379;DHT22;61664;48.112;11.662;2022-09-09T05:05:36;17.80;70.00
31379;DHT22;61664;48.112;11.662;2022-09-09T05:08:07;17.80;69.50
31379;DHT22;61664;48.112;11.662;2022-09-09T05:10:38;17.80;69.50
31379;DHT22;61664;48.112;11.662;2022-09-09T05:13:05;17.80;69.60
31379;DHT22;61664;48.112;11.662;2022-09-09T05:15:33;17.80;69.70
31379;DHT22;61664;48.112;11.662;2022-09-09T05:18:01;17.80;69.80
31379;DHT22;61664;48.112;11.662;2022-09-09T05:20:28;17.80;69.90
31379;DHT22;61664;48.112;11.662;2022-09-09T05:22:56;17.80;70.00
31379;DHT22;61664;48.112;11.662;2022-09-09T05:25:24;17.80;70.10
31379;DHT22;61664;48.112;11.662;2022-09-09T05:27:52;17.80;70.20
31379;DHT22;61664;48.112;11.662;2022-09-09T05:30:21;17.90;70.30
31379;DHT22;61664;48.112;11.662;2022-09-09T05:32:49;17.90;70.30
31379;DHT22;61664;48.112;11.662;2022-09-09T05:35:16;17.90;70.30
31379;DHT22;61664;48.112;11.662;2022-09-09T05:37:45;17.90;70.40
31379;DHT22;61664;48.112;11.662;2022-09-09T05:40:12;18.00;70.40
31379;DHT22;61664;48.112;11.662;2022-09-09T05:42:40;18.00;70.30
31379;DHT22;61664;48.112;11.662;2022-09-09T05:45:08;18.10;70.40
31379;DHT22;61664;48.112;11.662;2022-09-09T05:47:36;18.10;70.30
31379;DHT22;61664;48.112;11.662;2022-09-09T05:50:04;18.10;70.20
31379;DHT22;61664;48.112;11.662;2022-09-09T05:52:31;18.10;70.10
31379;DHT22;61664;48.112;11.662;2022-09-09T05:54:59;18.20;70.20
31379;DHT22;61664;48.112;11.662;2022-09-09T05:57:26;18.20;70.20
31379;DHT22;61664;48.112;11.662;2022-09-09T05:59:53;18.20;70.20
31379;DHT22;61664;48.112;11.662;2022-09-09T06:02:20;18.20;70.20
31379;DHT22;61664;48.112;11.662;2022-09-09T06:04:47;18.30;70.30
31379;DHT22;61664;48.112;11.662;2022-09-09T06:07:14;18.30;70.30
31379;DHT22;61664;48.112;11.662;2022-09-09T06:09:41;18.40;70.30
31379;DHT22;61664;48.112;11.662;2022-09-09T06:12:08;18.40;70.30
31379;DHT22;61664;48.112;11.662;2022-09-09T06:14:35;18.50;70.20
31379;DHT22;61664;48.112;11.662;2022-09-09T06:17:03;18.50;70.20
31379;DHT22;61664;48.112;11.662;2022-09-09T06:19:30;18.50;70.00
31379;DHT22;61664;48.112;11.662;2022-09-09T06:21:57;18.60;69.90
31379;DHT22;61664;48.112;11.662;2022-09-09T06:24:25;18.60;69.60
31379;DHT22;61664;48.112;11.662;2022-09-09T06:26:53;18.60;69.40
31379;DHT22;61664;48.112;11.662;2022-09-09T06:29:20;18.70;69.40
31379;DHT22;61664;48.112;11.662;2022-09-09T06:31:47;18.70;69.20
31379;DHT22;61664;48.112;11.662;2022-09-09T06:34:14;18.70;69.20
31379;DHT22;61664;48.112;11.662;2022-09-09T06:36:41;18.70;69.00
31379;DHT22;61664;48.112;11.662;2022-09-09T06:39:09;18.70;68.90
31379;DHT22;61664;48.112;11.662;2022-09-09T06:41:40;18.70;68.70
31379;DHT22;61664;48.112;11.662;2022-09-09T06:44:09;18.70;68.70
31379;DHT22;61664;48.112;11.662;2022-09-09T06:46:38;18.70;68.70
31379;DHT22;61664;48.112;11.662;2022-09-09T06:49:07;18.80;68.80
31379;DHT22;61664;48.112;11.662;2022-09-09T06:51:36;18.80;68.80
31379;DHT22;61664;48.112;11.662;2022-09-09T06:54:10;18.80;68.70
31379;DHT22;61664;48.112;11.662;2022-09-09T06:56:42;18.90;68.80
31379;DHT22;61664;48.112;11.662;2022-09-09T06:59:10;18.90;68.40
31379;DHT22;61664;48.112;11.662;2022-09-09T07:01:40;18.90;68.80
31379;DHT22;61664;48.112;11.662;2022-09-09T07:04:08;18.90;68.90
31379;DHT22;61664;48.112;11.662;2022-09-09T07:06:42;18.90;68.80
31379;DHT22;61664;48.112;11.662;2022-09-09T07:09:13;18.90;68.70
31379;DHT22;61664;48.112;11.662;2022-09-09T07:11:47;18.90;68.60
31379;DHT22;61664;48.112;11.662;2022-09-09T07:14:17;18.90;68.40
31379;DHT22;61664;48.112;11.662;2022-09-09T07:16:44;18.90;69.10
31379;DHT22;61664;48.112;11.662;2022-09-09T07:19:13;18.90;69.10
31379;DHT22;61664;48.112;11.662;2022-09-09T07:21:41;18.90;69.30
31379;DHT22;61664;48.112;11.662;2022-09-09T07:24:09;19.00;69.20
31379;DHT22;61664;48.112;11.662;2022-09-09T07:26:38;19.00;69.30
31379;DHT22;61664;48.112;11.662;2022-09-09T07:29:06;19.00;69.30
31379;DHT22;61664;48.112;11.662;2022-09-09T07:31:36;19.00;69.20
31379;DHT22;61664;48.112;11.662;2022-09-09T07:34:07;19.10;69.10
31379;DHT22;61664;48.112;11.662;2022-09-09T07:36:37;19.10;69.10
31379;DHT22;61664;48.112;11.662;2022-09-09T07:39:08;19.10;68.90
31379;DHT22;61664;48.112;11.662;2022-09-09T07:41:42;19.10;68.80
31379;DHT22;61664;48.112;11.662;2022-09-09T07:44:14;19.10;68.70
31379;DHT22;61664;48.112;11.662;2022-09-09T07:46:43;19.10;69.00
31379;DHT22;61664;48.112;11.662;2022-09-09T07:49:12;19.10;69.00
31379;DHT22;61664;48.112;11.662;2022-09-09T07:51:46;19.20;69.00
31379;DHT22;61664;48.112;11.662;2022-09-09T07:54:16;19.10;68.40
31379;DHT22;61664;48.112;11.662;2022-09-09T07:56:47;19.20;69.00
31379;DHT22;61664;48.112;11.662;2022-09-09T07:59:14;19.30;69.30
31379;DHT22;61664;48.112;11.662;2022-09-09T08:01:47;19.30;69.20
31379;DHT22;61664;48.112;11.662;2022-09-09T08:04:21;19.40;69.20
31379;DHT22;61664;48.112;11.662;2022-09-09T08:06:55;19.40;69.30
31379;DHT22;61664;48.112;11.662;2022-09-09T08:09:25;19.60;69.20
31379;DHT22;61664;48.112;11.662;2022-09-09T08:11:56;19.60;69.20
31379;DHT22;61664;48.112;11.662;2022-09-09T08:14:23;19.70;68.90
31379;DHT22;61664;48.112;11.662;2022-09-09T08:16:50;19.70;68.80
31379;DHT22;61664;48.112;11.662;2022-09-09T08:19:20;19.80;68.80
31379;DHT22;61664;48.112;11.662;2022-09-09T08:21:47;19.90;68.70
31379;DHT22;61664;48.112;11.662;2022-09-09T08:24:15;19.90;68.40
31379;DHT22;61664;48.112;11.662;2022-09-09T08:26:44;20.00;68.50
31379;DHT22;61664;48.112;11.662;2022-09-09T08:29:13;20.10;68.40
31379;DHT22;61664;48.112;11.662;2022-09-09T08:31:47;20.10;68.50
31379;DHT22;61664;48.112;11.662;2022-09-09T08:34:16;20.20;68.60
31379;DHT22;61664;48.112;11.662;2022-09-09T08:36:47;20.30;68.40
31379;DHT22;61664;48.112;11.662;2022-09-09T08:39:17;20.40;68.10
31379;DHT22;61664;48.112;11.662;2022-09-09T08:45:19;20.50;65.90
31379;DHT22;61664;48.112;11.662;2022-09-09T08:50:35;20.60;67.50
31379;DHT22;61664;48.112;11.662;2022-09-09T08:53:22;20.60;66.10
31379;DHT22;61664;48.112;11.662;2022-09-09T08:55:54;20.70;67.30
31379;DHT22;61664;48.112;11.662;2022-09-09T08:58:30;20.70;67.30
31379;DHT22;61664;48.112;11.662;2022-09-09T09:03:44;20.70;65.80
31379;DHT22;61664;48.112;11.662;2022-09-09T09:09:29;20.70;66.10
31379;DHT22;61664;48.112;11.662;2022-09-09T09:12:21;20.70;65.70
31379;DHT22;61664;48.112;11.662;2022-09-09T09:14:51;20.70;66.50
31379;DHT22;61664;48.112;11.662;2022-09-09T09:17:18;20.70;66.80
31379;DHT22;61664;48.112;11.662;2022-09-09T09:19:48;20.70;67.10
31379;DHT22;61664;48.112;11.662;2022-09-09T09:25:11;20.70;67.30
31379;DHT22;61664;48.112;11.662;2022-09-09T09:27:57;20.70;66.90
31379;DHT22;61664;48.112;11.662;2022-09-09T09:30:35;20.80;66.90
31379;DHT22;61664;48.112;11.662;2022-09-09T09:36:08;20.90;66.50
31379;DHT22;61664;48.112;11.662;2022-09-09T09:38:36;21.00;67.80
31379;DHT22;61664;48.112;11.662;2022-09-09T09:41:36;21.00;67.30
31379;DHT22;61664;48.112;11.662;2022-09-09T09:44:31;21.10;66.00
31379;DHT22;61664;48.112;11.662;2022-09-09T09:47:12;21.10;65.10
31379;DHT22;61664;48.112;11.662;2022-09-09T09:52:23;21.10;65.40
31379;DHT22;61664;48.112;11.662;2022-09-09T09:54:53;21.10;66.50
31379;DHT22;61664;48.112;11.662;2022-09-09T09:57:28;21.10;66.40
31379;DHT22;61664;48.112;11.662;2022-09-09T10:00:24;21.10;65.30
31379;DHT22;61664;48.112;11.662;2022-09-09T10:02:52;21.00;65.10
31379;DHT22;61664;48.112;11.662;2022-09-09T10:05:24;21.10;66.20
31379;DHT22;61664;48.112;11.662;2022-09-09T10:08:02;21.00;66.00
31379;DHT22;61664;48.112;11.662;2022-09-09T10:17:03;21.10;63.90
31379;DHT22;61664;48.112;11.662;2022-09-09T10:19:37;21.10;64.30
31379;DHT22;61664;48.112;11.662;2022-09-09T10:22:10;21.10;65.10
31379;DHT22;61664;48.112;11.662;2022-09-09T10:30:48;21.20;64.80
31379;DHT22;61664;48.112;11.662;2022-09-09T10:36:22;21.00;63.50
31379;DHT22;61664;48.112;11.662;2022-09-09T10:39:04;20.90;63.60
31379;DHT22;61664;48.112;11.662;2022-09-09T10:44:46;20.80;64.40
31379;DHT22;61664;48.112;11.662;2022-09-09T10:53:53;21.00;64.90
31379;DHT22;61664;48.112;11.662;2022-09-09T10:56:33;21.00;64.00
31379;DHT22;61664;48.112;11.662;2022-09-09T10:59:26;21.10;66.40
31379;DHT22;61664;48.112;11.662;2022-09-09T11:04:50;21.30;65.10
31379;DHT22;61664;48.112;11.662;2022-09-09T11:07:41;21.50;65.50
31379;DHT22;61664;48.112;11.662;2022-09-09T11:10:23;21.60;64.30
31379;DHT22;61664;48.112;11.662;2022-09-09T11:13:05;21.70;63.90
31379;DHT22;61664;48.112;11.662;2022-09-09T11:15:52;21.70;64.90
31379;DHT22;61664;48.112;11.662;2022-09-09T11:18:23;21.80;63.40
31379;DHT22;61664;48.112;11.662;2022-09-09T11:20:54;21.80;65.00
31379;DHT22;61664;48.112;11.662;2022-09-09T11:23:49;21.90;64.30
31379;DHT22;61664;48.112;11.662;2022-09-09T11:26:30;21.90;63.10
31379;DHT22;61664;48.112;11.662;2022-09-09T11:32:20;21.90;61.90
31379;DHT22;61664;48.112;11.662;2022-09-09T11:40:42;22.00;61.90
31379;DHT22;61664;48.112;11.662;2022-09-09T11:43:34;22.10;63.90
31379;DHT22;61664;48.112;11.662;2022-09-09T11:46:11;22.20;62.60
31379;DHT22;61664;48.112;11.662;2022-09-09T11:48:42;22.30;62.80
31379;DHT22;61664;48.112;11.662;2022-09-09T11:56:32;22.60;62.80
31379;DHT22;61664;48.112;11.662;2022-09-09T12:10:41;23.20;60.30
31379;DHT22;61664;48.112;11.662;2022-09-09T12:13:22;23.20;59.60
31379;DHT22;61664;48.112;11.662;2022-09-09T12:15:56;23.20;61.40
31379;DHT22;61664;48.112;11.662;2022-09-09T12:24:11;23.20;58.10
31379;DHT22;61664;48.112;11.662;2022-09-09T12:26:58;23.10;58.50
31379;DHT22;61664;48.112;11.662;2022-09-09T12:29:49;23.10;57.60
31379;DHT22;61664;48.112;11.662;2022-09-09T12:33:08;23.10;58.20
31379;DHT22;61664;48.112;11.662;2022-09-09T12:35:40;23.10;55.70
31379;DHT22;61664;48.112;11.662;2022-09-09T12:38:15;23.20;59.80
31379;DHT22;61664;48.112;11.662;2022-09-09T12:40:56;23.20;59.30
31379;DHT22;61664;48.112;11.662;2022-09-09T12:43:26;23.20;57.50
31379;DHT22;61664;48.112;11.662;2022-09-09T12:46:03;23.30;59.20
31379;DHT22;61664;48.112;11.662;2022-09-09T12:48:38;23.30;58.00
31379;DHT22;61664;48.112;11.662;2022-09-09T12:51:28;23.40;60.00
31379;DHT22;61664;48.112;11.662;2022-09-09T12:53:58;23.50;57.90
31379;DHT22;61664;48.112;11.662;2022-09-09T12:56:28;23.70;59.50
31379;DHT22;61664;48.112;11.662;2022-09-09T12:58:58;23.80;59.40
31379;DHT22;61664;48.112;11.662;2022-09-09T13:01:27;23.90;59.60
31379;DHT22;61664;48.112;11.662;2022-09-09T13:03:59;24.00;58.00
31379;DHT22;61664;48.112;11.662;2022-09-09T13:06:31;24.10;57.90
31379;DHT22;61664;48.112;11.662;2022-09-09T13:09:00;24.10;56.60
31379;DHT22;61664;48.112;11.662;2022-09-09T13:11:39;24.20;56.80
31379;DHT22;61664;48.112;11.662;2022-09-09T13:14:35;24.10;55.50
31379;DHT22;61664;48.112;11.662;2022-09-09T13:17:15;24.00;55.60
31379;DHT22;61664;48.112;11.662;2022-09-09T13:19:46;24.00;57.10
31379;DHT22;61664;48.112;11.662;2022-09-09T13:25:22;24.00;55.40
31379;DHT22;61664;48.112;11.662;2022-09-09T13:27:59;24.00;57.10
31379;DHT22;61664;48.112;11.662;2022-09-09T13:30:36;24.00;55.50
31379;DHT22;61664;48.112;11.662;2022-09-09T13:35:50;23.90;54.30
31379;DHT22;61664;48.112;11.662;2022-09-09T13:38:20;23.90;53.50
31379;DHT22;61664;48.112;11.662;2022-09-09T13:40:58;23.80;55.30
31379;DHT22;61664;48.112;11.662;2022-09-09T13:43:30;23.70;53.30
31379;DHT22;61664;48.112;11.662;2022-09-09T13:46:25;23.50;55.40
31379;DHT22;61664;48.112;11.662;2022-09-09T13:49:01;23.40;54.80
31379;DHT22;61664;48.112;11.662;2022-09-09T13:51:50;23.30;54.80
31379;DHT22;61664;48.112;11.662;2022-09-09T13:54:20;23.10;55.80
31379;DHT22;61664;48.112;11.662;2022-09-09T13:56:47;23.00;55.80
31379;DHT22;61664;48.112;11.662;2022-09-09T13:59:18;22.80;55.70
31379;DHT22;61664;48.112;11.662;2022-09-09T14:02:03;22.70;56.30
31379;DHT22;61664;48.112;11.662;2022-09-09T14:04:30;22.50;56.70
31379;DHT22;61664;48.112;11.662;2022-09-09T14:06:57;22.40;57.20
31379;DHT22;61664;48.112;11.662;2022-09-09T14:09:24;22.30;57.40
31379;DHT22;61664;48.112;11.662;2022-09-09T14:11:51;22.20;58.00
31379;DHT22;61664;48.112;11.662;2022-09-09T14:14:18;22.10;58.40
31379;DHT22;61664;48.112;11.662;2022-09-09T14:16:45;22.10;58.20
31379;DHT22;61664;48.112;11.662;2022-09-09T14:19:12;22.00;58.20
31379;DHT22;61664;48.112;11.662;2022-09-09T14:21:38;22.00;58.60
31379;DHT22;61664;48.112;11.662;2022-09-09T14:24:05;22.00;58.50
31379;DHT22;61664;48.112;11.662;2022-09-09T14:26:32;22.00;58.50
31379;DHT22;61664;48.112;11.662;2022-09-09T14:28:59;22.00;58.70
31379;DHT22;61664;48.112;11.662;2022-09-09T14:31:28;22.10;58.90
31379;DHT22;61664;48.112;11.662;2022-09-09T14:33:55;22.10;59.40
31379;DHT22;61664;48.112;11.662;2022-09-09T14:36:22;22.20;59.50
31379;DHT22;61664;48.112;11.662;2022-09-09T14:38:49;22.40;59.30
31379;DHT22;61664;48.112;11.662;2022-09-09T14:41:18;22.50;58.60
31379;DHT22;61664;48.112;11.662;2022-09-09T14:43:46;22.50;57.30
31379;DHT22;61664;48.112;11.662;2022-09-09T14:46:16;22.50;57.50
31379;DHT22;61664;48.112;11.662;2022-09-09T14:48:44;22.40;57.10
31379;DHT22;61664;48.112;11.662;2022-09-09T14:51:14;22.40;57.30
31379;DHT22;61664;48.112;11.662;2022-09-09T14:53:43;22.30;56.50
31379;DHT22;61664;48.112;11.662;2022-09-09T14:56:16;22.20;56.80
31379;DHT22;61664;48.112;11.662;2022-09-09T14:58:48;22.10;57.30
31379;DHT22;61664;48.112;11.662;2022-09-09T15:01:17;22.00;57.30
31379;DHT22;61664;48.112;11.662;2022-09-09T15:03:52;22.00;57.20
31379;DHT22;61664;48.112;11.662;2022-09-09T15:06:22;21.90;56.70
31379;DHT22;61664;48.112;11.662;2022-09-09T15:08:51;21.90;57.70
31379;DHT22;61664;48.112;11.662;2022-09-09T15:11:20;21.90;57.50
31379;DHT22;61664;48.112;11.662;2022-09-09T15:13:51;22.00;57.80
31379;DHT22;61664;48.112;11.662;2022-09-09T15:16:23;22.00;58.00
31379;DHT22;61664;48.112;11.662;2022-09-09T15:18:53;22.00;58.00
31379;DHT22;61664;48.112;11.662;2022-09-09T15:21:23;22.00;58.20
31379;DHT22;61664;48.112;11.662;2022-09-09T15:23:53;22.00;57.50
31379;DHT22;61664;48.112;11.662;2022-09-09T15:26:21;21.90;57.40
31379;DHT22;61664;48.112;11.662;2022-09-09T15:28:49;21.80;57.60
31379;DHT22;61664;48.112;11.662;2022-09-09T15:31:19;21.80;57.70
31379;DHT22;61664;48.112;11.662;2022-09-09T15:33:55;21.70;57.90
31379;DHT22;61664;48.112;11.662;2022-09-09T15:36:32;21.60;57.50
31379;DHT22;61664;48.112;11.662;2022-09-09T15:39:02;21.60;58.10
31379;DHT22;61664;48.112;11.662;2022-09-09T15:41:30;21.60;58.40
31379;DHT22;61664;48.112;11.662;2022-09-09T15:44:01;21.50;58.40
31379;DHT22;61664;48.112;11.662;2022-09-09T15:46:33;21.50;58.60
31379;DHT22;61664;48.112;11.662;2022-09-09T15:49:15;21.50;58.30
31379;DHT22;61664;48.112;11.662;2022-09-09T15:51:47;21.50;58.40
31379;DHT22;61664;48.112;11.662;2022-09-09T15:54:19;21.50;59.00
31379;DHT22;61664;48.112;11.662;2022-09-09T15:56:57;21.50;59.20
31379;DHT22;61664;48.112;11.662;2022-09-09T15:59:27;21.70;59.30
31379;DHT22;61664;48.112;11.662;2022-09-09T16:01:59;21.80;60.30
31379;DHT22;61664;48.112;11.662;2022-09-09T16:04:27;22.10;61.90
31379;DHT22;61664;48.112;11.662;2022-09-09T16:07:01;22.60;62.60
31379;DHT22;61664;48.112;11.662;2022-09-09T16:09:30;23.20;61.00
31379;DHT22;61664;48.112;11.662;2022-09-09T16:12:00;23.60;58.90
31379;DHT22;61664;48.112;11.662;2022-09-09T16:14:28;23.70;57.10
31379;DHT22;61664;48.112;11.662;2022-09-09T16:16:55;23.80;55.90
31379;DHT22;61664;48.112;11.662;2022-09-09T16:19:23;23.70;55.20
31379;DHT22;61664;48.112;11.662;2022-09-09T16:21:50;23.50;54.90
31379;DHT22;61664;48.112;11.662;2022-09-09T16:24:18;23.40;55.10
31379;DHT22;61664;48.112;11.662;2022-09-09T16:26:48;23.30;55.70
31379;DHT22;61664;48.112;11.662;2022-09-09T16:29:18;23.50;56.90
31379;DHT22;61664;48.112;11.662;2022-09-09T16:31:46;23.80;57.70
31379;DHT22;61664;48.112;11.662;2022-09-09T16:34:14;24.20;57.90
31379;DHT22;61664;48.112;11.662;2022-09-09T16:36:43;24.70;57.90
31379;DHT22;61664;48.112;11.662;2022-09-09T16:39:19;25.20;57.40
31379;DHT22;61664;48.112;11.662;2022-09-09T16:41:48;25.60;56.20
31379;DHT22;61664;48.112;11.662;2022-09-09T16:44:16;26.20;55.60
31379;DHT22;61664;48.112;11.662;2022-09-09T16:46:46;26.50;54.40
31379;DHT22;61664;48.112;11.662;2022-09-09T16:49:15;26.80;53.90
31379;DHT22;61664;48.112;11.662;2022-09-09T16:51:51;27.00;52.80
31379;DHT22;61664;48.112;11.662;2022-09-09T16:54:21;27.20;48.30
31379;DHT22;61664;48.112;11.662;2022-09-09T16:56:49;27.30;50.80
31379;DHT22;61664;48.112;11.662;2022-09-09T16:59:18;27.30;50.00
31379;DHT22;61664;48.112;11.662;2022-09-09T17:01:49;27.20;49.20
31379;DHT22;61664;48.112;11.662;2022-09-09T17:04:22;26.90;48.10
31379;DHT22;61664;48.112;11.662;2022-09-09T17:06:53;26.60;48.00
31379;DHT22;61664;48.112;11.662;2022-09-09T17:09:22;26.10;48.00
31379;DHT22;61664;48.112;11.662;2022-09-09T17:11:51;25.70;48.30
31379;DHT22;61664;48.112;11.662;2022-09-09T17:14:20;25.30;48.70
31379;DHT22;61664;48.112;11.662;2022-09-09T17:16:48;24.90;48.90
31379;DHT22;61664;48.112;11.662;2022-09-09T17:19:16;24.50;49.30
31379;DHT22;61664;48.112;11.662;2022-09-09T17:21:43;24.10;49.80
31379;DHT22;61664;48.112;11.662;2022-09-09T17:24:33;23.70;50.30
31379;DHT22;61664;48.112;11.662;2022-09-09T17:27:00;23.30;50.90
31379;DHT22;61664;48.112;11.662;2022-09-09T17:29:28;22.90;51.40
31379;DHT22;61664;48.112;11.662;2022-09-09T17:31:55;22.60;52.60
31379;DHT22;61664;48.112;11.662;2022-09-09T17:34:22;22.30;52.60
31379;DHT22;61664;48.112;11.662;2022-09-09T17:36:50;22.10;53.10
31379;DHT22;61664;48.112;11.662;2022-09-09T17:39:18;21.80;53.50
31379;DHT22;61664;48.112;11.662;2022-09-09T17:41:44;21.60;53.90
31379;DHT22;61664;48.112;11.662;2022-09-09T17:44:12;21.50;54.40
31379;DHT22;61664;48.112;11.662;2022-09-09T17:46:41;21.30;54.70
31379;DHT22;61664;48.112;11.662;2022-09-09T17:49:11;21.10;55.10
31379;DHT22;61664;48.112;11.662;2022-09-09T17:51:41;21.00;55.40
31379;DHT22;61664;48.112;11.662;2022-09-09T17:54:15;20.80;55.70
31379;DHT22;61664;48.112;11.662;2022-09-09T17:56:46;20.70;55.80
31379;DHT22;61664;48.112;11.662;2022-09-09T17:59:15;20.50;56.20